Portada
METAR-TAF:

METAR-TAF

Aeroports :

Santiago de Cuba, Cuba

latitud: 19-58N, longitud: 075-51W, altitud: 69 m

Observació

L'informe es va fer fa 49 minuts, a les 13:50 UTC
Vent 6 kt del Nord, variant entre Nord-Oest i Est/Nord-Est
Temperatura 27°C
Humitat 66%
Pressió 1017 hPa
Visibilitat 10 km o més
Escasses núvols a una alçada de 2000 ft

METAR: MUCU 261350Z 01006KT 310V060 9999 FEW020 27/20 Q1017

Hora: 09:39 (14:39 UTC)

Pronòstic

L'informe es va fer fa 3 hores i 39 minuts, a les 11:00 UTC
Pronòstic vàlid del 26 a les 12 UTC al 27 a les 12 UTC
Vent 9 kt del Nord/Nord-Est
Visibilitat: 9000 m
Núvols disperses a una alçada de 2000 ft
Evolucionant progressivament
l' 26 a les 16 UTC al 26 a les 18 UTC
Vent 3 kt amb direcció variable
Evolucionant progressivament
l' 27 a les 00 UTC al 27 a les 03 UTC
Vent 6 kt del Nord

TAF: MUCU 261100Z 2612/2712 02009KT 9000 SCT020 BECMG 2616/2618 VRB03KT BECMG 2700/2703 36006KT

Observacions i pronòstics meteorològics de més de 4000 aeroports (METAR i TAF).

Les estacions disponibles són els punts grocs i vermells al mapa.

Posi el ratolí al punt desitjat per veure el nom de l'estació.

Feu clic per veure les observacions i els pronòstics meteorològics.

Per canviar el mapa: feu clic els botons verds amb una creu de color negre per apropar; al botó verd amb un guió per allunyar la imatge; o en les fletxes verdes per a mapes adjacents.


METAR-TAF: